Date,TemperatureHighF,TemperatureAvgF,TemperatureLowF,DewpointHighF,DewpointAvgF,DewpointLowF,HumidityHigh,HumidityAvg,HumidityLow,PressureMaxIn,PressureMinIn,WindSpeedMaxMPH,WindSpeedAvgMPH,GustSpeedMaxMPH,PrecipitationSumIn
2013-2-1,67,55,45,45,36,27,86,53,24,30.36,30.22,9,2,0,0.00
2013-2-2,73,57,46,48,43,36,87,62,30,30.30,30.15,4,1,0,0.00
2013-2-3,70,56,42,54,48,41,97,79,53,30.20,30.09,7,1,0,0.00
2013-2-4,71,55,43,54,44,36,97,72,32,30.14,30.04,5,1,0,0.01
2013-2-5,76,60,46,56,49,43,93,72,44,30.09,30.00,6,1,0,0.00
2013-2-6,80,68,59,64,59,56,92,75,51,30.10,30.01,6,1,0,0.00
2013-2-7,80,70,63,67,64,61,94,83,54,30.04,29.81,7,2,0,0.14
2013-2-8,76,67,58,66,61,56,94,84,60,30.08,29.89,8,2,0,0.00
2013-2-9,75,65,55,58,55,52,96,73,46,30.19,30.06,6,2,0,0.01
2013-2-10,79,69,62,64,60,57,87,74,54,30.23,30.12,8,3,0,0.00
2013-2-11,81,71,64,68,64,61,92,81,61,30.19,30.07,8,2,0,0.00
2013-2-12,80,72,65,72,68,63,97,89,74,30.08,29.94,7,1,0,0.01
2013-2-13,79,71,61,73,68,56,96,90,80,30.00,29.85,8,2,0,0.11
2013-2-14,64,61,59,62,59,57,96,93,86,30.04,29.91,5,1,0,0.59
2013-2-15,68,60,56,59,56,52,97,86,61,30.07,29.95,5,1,0,0.06
2013-2-16,68,58,50,54,48,35,93,71,48,30.12,29.94,10,2,0,0.01
2013-2-17,54,46,38,37,27,20,80,48,29,30.34,30.13,12,3,0,0.00
2013-2-18,68,53,35,50,40,30,88,63,40,30.36,30.20,6,2,0,0.00
2013-2-19,76,65,54,62,57,50,93,76,57,30.21,30.08,13,1,0,0.00
2013-2-20,79,66,60,64,61,55,97,84,59,30.11,30.00,4,1,0,0.00
2013-2-21,82,69,60,67,62,56,92,80,59,30.10,29.98,7,1,0,0.00
2013-2-22,84,72,63,70,67,62,95,84,63,30.06,29.98,6,1,0,0.00
2013-2-23,80,73,69,73,70,67,96,90,78,29.99,29.89,7,1,0,0.01
2013-2-24,82,72,69,72,69,68,97,90,70,29.95,29.87,5,0,0,0.00
2013-2-25,82,74,68,72,69,67,96,87,70,29.89,29.77,5,1,0,0.00
2013-2-26,75,71,65,72,68,62,96,89,75,29.88,29.69,6,1,0,0.57
2013-2-27,74,64,58,61,57,53,95,79,58,29.98,29.87,5,1,0,0.00
2013-2-28,74,62,52,57,53,49,96,74,49,30.00,29.91,6,1,0,0.00